createdAt,value
2023-07-03T00:00:11.392Z,27.87
2023-07-03T00:01:11.367Z,27.86
2023-07-03T00:02:11.438Z,27.86
2023-07-03T00:03:11.419Z,27.87
2023-07-03T00:04:11.453Z,27.86
2023-07-03T00:05:11.432Z,27.86
2023-07-03T00:06:11.366Z,27.86
2023-07-03T00:07:11.352Z,27.84
2023-07-03T00:08:11.330Z,27.84
2023-07-03T00:09:11.314Z,27.86
2023-07-03T00:10:11.325Z,27.86
2023-07-03T00:11:11.338Z,27.84
2023-07-03T00:12:11.296Z,27.86
2023-07-03T00:13:11.339Z,27.86
2023-07-03T00:14:11.291Z,27.81
2023-07-03T00:15:11.314Z,27.83
2023-07-03T00:16:11.371Z,27.84
2023-07-03T00:17:11.291Z,27.81
2023-07-03T00:18:11.320Z,27.83
2023-07-03T00:19:11.295Z,27.83
2023-07-03T00:20:11.307Z,27.84
2023-07-03T00:21:11.286Z,27.83
2023-07-03T00:22:11.300Z,27.83
2023-07-03T00:23:11.309Z,27.81
2023-07-03T00:24:11.298Z,27.83
2023-07-03T00:25:11.325Z,27.83
2023-07-03T00:26:11.331Z,27.83
2023-07-03T00:27:11.281Z,27.81
2023-07-03T00:28:11.310Z,27.81
2023-07-03T00:29:11.330Z,27.83
2023-07-03T00:30:11.288Z,27.80
2023-07-03T00:31:11.349Z,27.83
2023-07-03T00:32:11.327Z,27.80
2023-07-03T00:33:11.319Z,27.80
2023-07-03T00:34:11.326Z,27.83
2023-07-03T00:35:11.341Z,27.80
2023-07-03T00:36:11.350Z,27.83
2023-07-03T00:37:11.324Z,27.80
2023-07-03T00:38:11.361Z,27.81
2023-07-03T00:39:11.412Z,27.80
2023-07-03T00:40:11.422Z,27.80
2023-07-03T00:41:11.391Z,27.80
2023-07-03T00:42:11.380Z,27.79
2023-07-03T00:43:11.422Z,27.81
2023-07-03T00:44:11.397Z,27.79
2023-07-03T00:45:11.422Z,27.77
2023-07-03T00:46:11.443Z,27.79
2023-07-03T00:47:11.444Z,27.77
2023-07-03T00:48:11.423Z,27.76
2023-07-03T00:49:11.432Z,27.77
2023-07-03T00:50:11.455Z,27.79
2023-07-03T00:51:11.463Z,27.76
2023-07-03T00:52:11.442Z,27.79
2023-07-03T00:53:14.160Z,27.79
2023-07-03T00:54:11.458Z,27.79
2023-07-03T00:55:11.466Z,27.76
2023-07-03T00:56:11.463Z,27.77
2023-07-03T00:57:11.437Z,27.76
2023-07-03T00:58:11.447Z,27.77
2023-07-03T00:59:11.434Z,27.74
2023-07-03T01:00:11.405Z,27.79
2023-07-03T01:01:11.436Z,27.76
2023-07-03T01:02:11.432Z,27.74
2023-07-03T01:03:11.386Z,27.77
2023-07-03T01:04:11.404Z,27.76
2023-07-03T01:05:11.532Z,27.77
2023-07-03T01:06:11.397Z,27.77
2023-07-03T01:07:11.364Z,27.74
2023-07-03T01:08:11.382Z,27.76
2023-07-03T01:09:11.351Z,27.76
2023-07-03T01:10:11.361Z,27.74
2023-07-03T01:11:11.340Z,27.76
2023-07-03T01:12:11.374Z,27.76
2023-07-03T01:13:11.335Z,27.73
2023-07-03T01:14:11.382Z,27.74
2023-07-03T01:15:11.350Z,27.76
2023-07-03T01:16:11.339Z,27.74
2023-07-03T01:17:11.301Z,27.73
2023-07-03T01:18:11.285Z,27.73
2023-07-03T01:19:11.297Z,27.74
2023-07-03T01:20:11.300Z,27.74
2023-07-03T01:21:11.274Z,27.74
2023-07-03T01:22:11.290Z,27.73
2023-07-03T01:23:11.273Z,27.74
2023-07-03T01:24:11.293Z,27.73
2023-07-03T01:25:11.234Z,27.73
2023-07-03T01:26:11.230Z,27.71
2023-07-03T01:27:11.293Z,27.71
2023-07-03T01:28:11.256Z,27.71
2023-07-03T01:29:11.219Z,27.73
2023-07-03T01:30:11.202Z,27.69
2023-07-03T01:31:11.213Z,27.69
2023-07-03T01:32:11.188Z,27.73
2023-07-03T01:33:11.208Z,27.71
2023-07-03T01:34:11.195Z,27.70
2023-07-03T01:35:11.179Z,27.70
2023-07-03T01:36:11.190Z,27.70
2023-07-03T01:37:11.187Z,27.71
2023-07-03T01:38:11.167Z,27.67
2023-07-03T01:39:11.167Z,27.71
2023-07-03T01:40:11.181Z,27.71
2023-07-03T01:41:11.139Z,27.69
2023-07-03T01:42:11.154Z,27.70
2023-07-03T01:43:11.137Z,27.71
2023-07-03T01:44:11.107Z,27.69
2023-07-03T01:45:11.147Z,27.67
2023-07-03T01:46:11.189Z,27.69
2023-07-03T01:47:11.114Z,27.69
2023-07-03T01:48:11.079Z,27.70
2023-07-03T01:49:11.065Z,27.70
2023-07-03T01:50:11.076Z,27.70
2023-07-03T01:51:11.073Z,27.70
2023-07-03T01:52:11.073Z,27.69
2023-07-03T01:53:11.046Z,27.69
2023-07-03T01:54:11.091Z,27.69
2023-07-03T01:55:11.100Z,27.67
2023-07-03T01:56:11.145Z,27.70
2023-07-03T01:57:11.156Z,27.67
2023-07-03T01:58:11.196Z,27.69
2023-07-03T01:59:11.179Z,27.66
2023-07-03T02:00:11.188Z,27.66
2023-07-03T02:01:11.241Z,27.67
2023-07-03T02:02:11.248Z,27.67
2023-07-03T02:03:11.372Z,27.66
2023-07-03T02:04:11.297Z,27.64
2023-07-03T02:05:11.244Z,27.67
2023-07-03T02:06:11.254Z,27.69
2023-07-03T02:07:11.262Z,27.64
2023-07-03T02:08:11.289Z,27.64
2023-07-03T02:09:11.304Z,27.66
2023-07-03T02:10:11.306Z,27.61
2023-07-03T02:11:11.334Z,27.64
2023-07-03T02:12:11.357Z,27.66
2023-07-03T02:13:11.417Z,27.64
2023-07-03T02:14:11.502Z,27.66
2023-07-03T02:15:11.534Z,27.64
2023-07-03T02:16:11.650Z,27.64
2023-07-03T02:17:11.642Z,27.63
2023-07-03T02:18:11.668Z,27.64
2023-07-03T02:19:11.686Z,27.64
2023-07-03T02:20:11.694Z,27.66
2023-07-03T02:21:11.728Z,27.64
2023-07-03T02:22:11.729Z,27.66
2023-07-03T02:23:11.753Z,27.66
2023-07-03T02:24:11.777Z,27.61
2023-07-03T02:25:11.773Z,27.61
2023-07-03T02:26:11.811Z,27.63
2023-07-03T02:27:11.813Z,27.64
2023-07-03T02:28:11.829Z,27.61
2023-07-03T02:29:11.830Z,27.61
2023-07-03T02:30:11.872Z,27.59
2023-07-03T02:31:11.968Z,27.63
2023-07-03T02:32:11.897Z,27.63
2023-07-03T02:33:11.929Z,27.61
2023-07-03T02:34:11.955Z,27.60
2023-07-03T02:35:11.974Z,27.63
2023-07-03T02:36:11.977Z,27.61
2023-07-03T02:37:12.005Z,27.59
2023-07-03T02:38:12.003Z,27.61
2023-07-03T02:39:12.027Z,27.63
2023-07-03T02:40:12.080Z,27.61
2023-07-03T02:41:12.074Z,27.60
2023-07-03T02:42:12.073Z,27.59
2023-07-03T02:43:12.083Z,27.60
2023-07-03T02:44:12.101Z,27.60
2023-07-03T02:45:12.125Z,27.60
2023-07-03T02:46:12.159Z,27.60
2023-07-03T02:47:12.198Z,27.61
2023-07-03T02:48:12.330Z,27.60
2023-07-03T02:49:12.201Z,27.60
2023-07-03T02:50:12.274Z,27.60
2023-07-03T02:51:12.253Z,27.60
2023-07-03T02:52:12.270Z,27.59
2023-07-03T02:53:12.295Z,27.59
2023-07-03T02:54:12.294Z,27.59
2023-07-03T02:55:12.321Z,27.61
2023-07-03T02:56:12.345Z,27.60
2023-07-03T02:57:12.374Z,27.57
2023-07-03T02:58:12.388Z,27.60
2023-07-03T02:59:12.411Z,27.60
2023-07-03T03:00:12.475Z,27.59
2023-07-03T03:01:12.484Z,27.57
2023-07-03T03:02:12.495Z,27.59
2023-07-03T03:03:12.609Z,27.57
2023-07-03T03:04:12.511Z,27.57
2023-07-03T03:05:12.541Z,27.57
2023-07-03T03:06:12.587Z,27.57
2023-07-03T03:07:12.584Z,27.56
2023-07-03T03:08:12.633Z,27.56
2023-07-03T03:09:12.611Z,27.54
2023-07-03T03:10:12.686Z,27.57
2023-07-03T03:11:12.661Z,27.56
2023-07-03T03:12:12.687Z,27.54
2023-07-03T03:13:12.726Z,27.56
2023-07-03T03:14:12.746Z,27.56
2023-07-03T03:15:12.755Z,27.54
2023-07-03T03:16:12.840Z,27.54
2023-07-03T03:17:12.807Z,27.56
2023-07-03T03:18:12.847Z,27.57
2023-07-03T03:19:12.848Z,27.54
2023-07-03T03:20:12.895Z,27.56
2023-07-03T03:21:13.050Z,27.54
2023-07-03T03:22:12.908Z,27.57
2023-07-03T03:23:12.970Z,27.54
2023-07-03T03:24:12.972Z,27.56
2023-07-03T03:25:13.042Z,27.54
2023-07-03T03:26:12.994Z,27.54
2023-07-03T03:27:14.602Z,27.53
2023-07-03T03:28:13.109Z,27.52
2023-07-03T03:29:13.048Z,27.54
2023-07-03T03:30:13.011Z,27.53
2023-07-03T03:31:13.055Z,27.53
2023-07-03T03:32:13.023Z,27.54
2023-07-03T03:33:12.974Z,27.53
2023-07-03T03:34:13.018Z,27.52
2023-07-03T03:35:12.968Z,27.53
2023-07-03T03:36:12.998Z,27.54
2023-07-03T03:37:12.974Z,27.53
2023-07-03T03:38:12.973Z,27.53
2023-07-03T03:39:12.941Z,27.53
2023-07-03T03:40:12.949Z,27.54
2023-07-03T03:41:12.957Z,27.53
2023-07-03T03:42:12.946Z,27.53
2023-07-03T03:43:12.928Z,27.50
2023-07-03T03:44:12.968Z,27.52
2023-07-03T03:45:12.950Z,27.54
2023-07-03T03:46:12.959Z,27.54
2023-07-03T03:47:12.918Z,27.53
2023-07-03T03:48:13.007Z,27.54
2023-07-03T03:49:12.892Z,27.52
2023-07-03T03:50:12.915Z,27.52
2023-07-03T03:51:12.870Z,27.50
2023-07-03T03:52:12.876Z,27.52
2023-07-03T03:53:12.856Z,27.50
2023-07-03T03:54:12.865Z,27.53
2023-07-03T03:55:12.852Z,27.52
2023-07-03T03:56:12.856Z,27.49
2023-07-03T03:57:12.838Z,27.53
2023-07-03T03:58:12.837Z,27.53
2023-07-03T03:59:12.813Z,27.50
2023-07-03T04:00:12.813Z,27.50
2023-07-03T04:01:12.863Z,27.50
2023-07-03T04:02:12.858Z,27.52
2023-07-03T04:03:12.798Z,27.52
2023-07-03T04:04:12.891Z,27.52
2023-07-03T04:05:13.060Z,27.52
2023-07-03T04:06:12.789Z,27.49
2023-07-03T04:07:12.772Z,27.50
2023-07-03T04:08:12.781Z,27.52
2023-07-03T04:09:12.750Z,27.53
2023-07-03T04:10:12.744Z,27.53
2023-07-03T04:11:12.733Z,27.48
2023-07-03T04:12:12.724Z,27.49
2023-07-03T04:13:12.726Z,27.49
2023-07-03T04:14:12.733Z,27.49
2023-07-03T04:15:12.708Z,27.52
2023-07-03T04:16:12.802Z,27.49
2023-07-03T04:17:12.705Z,27.48
2023-07-03T04:18:12.708Z,27.50
2023-07-03T04:19:12.700Z,27.52
2023-07-03T04:20:12.676Z,27.50
2023-07-03T04:21:12.679Z,27.50
2023-07-03T04:22:12.679Z,27.50
2023-07-03T04:23:12.650Z,27.50
2023-07-03T04:24:12.651Z,27.50
2023-07-03T04:25:12.675Z,27.50
2023-07-03T04:26:12.657Z,27.50
2023-07-03T04:27:12.619Z,27.52
2023-07-03T04:28:12.638Z,27.48
2023-07-03T04:29:12.640Z,27.49
2023-07-03T04:30:12.621Z,27.50
2023-07-03T04:31:12.636Z,27.50
2023-07-03T04:32:12.617Z,27.49
2023-07-03T04:33:12.615Z,27.52
2023-07-03T04:34:12.598Z,27.48
2023-07-03T04:35:12.572Z,27.50
2023-07-03T04:36:12.592Z,27.50
2023-07-03T04:37:12.563Z,27.49
2023-07-03T04:38:12.558Z,27.50
2023-07-03T04:39:12.549Z,27.49
2023-07-03T04:40:12.554Z,27.52
2023-07-03T04:41:12.587Z,27.50
2023-07-03T04:42:12.593Z,27.48
2023-07-03T04:43:12.635Z,27.48
2023-07-03T04:44:12.720Z,27.48
2023-07-03T04:45:12.672Z,27.50
2023-07-03T04:46:12.788Z,27.50
2023-07-03T04:47:12.780Z,27.50
2023-07-03T04:48:12.774Z,27.50
2023-07-03T04:49:12.796Z,27.49
2023-07-03T04:50:12.836Z,27.49
2023-07-03T04:51:12.858Z,27.50
2023-07-03T04:52:12.907Z,27.50
2023-07-03T04:53:12.911Z,27.50
2023-07-03T04:54:12.919Z,27.49
2023-07-03T04:55:12.944Z,27.50
2023-07-03T04:56:12.977Z,27.46
2023-07-03T04:57:13.008Z,27.49
2023-07-03T04:58:13.037Z,27.49
2023-07-03T04:59:13.048Z,27.49
2023-07-03T05:00:13.078Z,27.49
2023-07-03T05:01:13.260Z,27.50
2023-07-03T05:02:13.122Z,27.52
2023-07-03T05:03:13.224Z,27.50
2023-07-03T05:04:13.365Z,27.52
2023-07-03T05:05:13.257Z,27.53
2023-07-03T05:06:13.321Z,27.52
2023-07-03T05:07:13.370Z,27.52
2023-07-03T05:08:13.390Z,27.50
2023-07-03T05:09:13.419Z,27.50
2023-07-03T05:10:13.436Z,27.53
2023-07-03T05:11:13.443Z,27.52
2023-07-03T05:12:13.477Z,27.50
2023-07-03T05:13:13.500Z,27.50
2023-07-03T05:14:13.513Z,27.53
2023-07-03T05:15:13.519Z,27.53
2023-07-03T05:16:13.573Z,27.52
2023-07-03T05:17:13.595Z,27.52
2023-07-03T05:18:13.622Z,27.53
2023-07-03T05:19:13.631Z,27.54
2023-07-03T05:20:13.654Z,27.50
2023-07-03T05:21:13.668Z,27.53
2023-07-03T05:22:13.712Z,27.53
2023-07-03T05:23:13.715Z,27.56
2023-07-03T05:24:13.740Z,27.52
2023-07-03T05:25:13.771Z,27.53
2023-07-03T05:26:13.804Z,27.50
2023-07-03T05:27:13.804Z,27.43
2023-07-03T05:28:13.880Z,27.35
2023-07-03T05:29:13.889Z,27.35
2023-07-03T05:30:13.953Z,27.43
2023-07-03T05:31:14.142Z,27.52
2023-07-03T05:32:13.994Z,27.50
2023-07-03T05:33:14.025Z,27.54
2023-07-03T05:34:14.069Z,27.59
2023-07-03T05:35:14.049Z,27.56
2023-07-03T05:36:14.576Z,27.56
2023-07-03T05:37:14.107Z,27.64
2023-07-03T05:38:14.160Z,27.66
2023-07-03T05:39:14.227Z,27.79
2023-07-03T05:40:14.172Z,27.76
2023-07-03T05:41:14.183Z,27.83
2023-07-03T05:42:14.223Z,27.91
2023-07-03T05:43:14.246Z,27.97
2023-07-03T05:44:14.195Z,28.01
2023-07-03T05:45:14.237Z,28.04
2023-07-03T05:46:14.275Z,28.08
2023-07-03T05:47:14.360Z,28.12
2023-07-03T05:48:14.392Z,28.15
2023-07-03T05:49:14.458Z,28.15
2023-07-03T05:50:14.489Z,28.14
2023-07-03T05:51:14.523Z,27.99
2023-07-03T05:52:14.565Z,28.17
2023-07-03T05:53:14.555Z,28.20
2023-07-03T05:54:14.594Z,28.25
2023-07-03T05:55:14.588Z,28.28
2023-07-03T05:56:14.671Z,28.28
2023-07-03T05:57:14.658Z,28.31
2023-07-03T05:58:14.769Z,28.35
2023-07-03T05:59:14.788Z,28.37
2023-07-03T06:00:15.073Z,28.38
2023-07-03T06:01:14.937Z,28.42
2023-07-03T06:02:14.960Z,28.41
2023-07-03T06:03:15.095Z,28.34
2023-07-03T06:04:15.136Z,28.42
2023-07-03T06:05:15.138Z,28.42
2023-07-03T06:06:15.193Z,28.45
2023-07-03T06:07:15.377Z,28.47
2023-07-03T06:08:15.291Z,28.47
2023-07-03T06:09:15.363Z,28.48
2023-07-03T06:10:15.421Z,28.48
2023-07-03T06:11:15.494Z,28.49
2023-07-03T06:12:15.527Z,28.51
2023-07-03T06:13:15.561Z,28.55
2023-07-03T06:14:15.616Z,28.55
2023-07-03T06:15:15.676Z,28.58
2023-07-03T06:16:16.987Z,28.58
2023-07-03T06:17:15.984Z,28.61
2023-07-03T06:18:15.750Z,28.56
2023-07-03T06:19:15.799Z,28.59
2023-07-03T06:20:15.846Z,28.63
2023-07-03T06:21:15.921Z,28.61
2023-07-03T06:22:15.912Z,28.63
2023-07-03T06:23:15.993Z,28.62
2023-07-03T06:24:16.014Z,28.63
2023-07-03T06:25:16.054Z,28.66
2023-07-03T06:26:16.093Z,28.68
2023-07-03T06:27:16.140Z,28.69
2023-07-03T06:28:16.161Z,28.72
2023-07-03T06:29:16.246Z,28.72
2023-07-03T06:30:16.244Z,28.76
2023-07-03T06:31:16.356Z,28.73
2023-07-03T06:32:16.350Z,28.70
2023-07-03T06:33:16.372Z,28.73
2023-07-03T06:34:16.424Z,28.76
2023-07-03T06:35:16.501Z,28.75
2023-07-03T06:36:16.514Z,28.78
2023-07-03T06:37:16.521Z,28.78
2023-07-03T06:38:16.593Z,28.78
2023-07-03T06:39:16.584Z,28.78
2023-07-03T06:40:16.628Z,28.80
2023-07-03T06:41:16.675Z,28.80
2023-07-03T06:42:16.748Z,28.83
2023-07-03T06:43:16.709Z,28.85
2023-07-03T06:44:16.746Z,28.85
2023-07-03T06:45:16.736Z,28.85
2023-07-03T06:46:17.122Z,28.86
2023-07-03T06:47:16.806Z,28.92
2023-07-03T06:48:16.763Z,28.82
2023-07-03T06:49:16.775Z,28.88
2023-07-03T06:50:16.786Z,28.89
2023-07-03T06:51:16.808Z,28.86
2023-07-03T06:52:17.111Z,28.82
2023-07-03T06:53:16.850Z,28.85
2023-07-03T06:54:16.895Z,28.80
2023-07-03T06:55:16.935Z,28.76
2023-07-03T06:56:16.960Z,28.70
2023-07-03T06:57:17.013Z,28.72
2023-07-03T06:58:17.112Z,28.68
2023-07-03T06:59:17.099Z,28.79
2023-07-03T07:00:17.133Z,28.83
2023-07-03T07:01:17.144Z,28.75
2023-07-03T07:02:17.222Z,28.79
2023-07-03T07:03:17.299Z,28.72
2023-07-03T07:04:17.462Z,28.76
2023-07-03T07:05:17.368Z,28.76
2023-07-03T07:06:17.353Z,28.66
2023-07-03T07:07:17.355Z,28.63
2023-07-03T07:08:17.401Z,28.56
2023-07-03T07:09:17.481Z,28.61
2023-07-03T07:10:17.532Z,28.61
2023-07-03T07:11:17.566Z,28.59
2023-07-03T07:12:17.660Z,28.61
2023-07-03T07:13:17.674Z,28.59
2023-07-03T07:14:17.813Z,28.56
2023-07-03T07:15:17.803Z,28.58
2023-07-03T07:16:17.876Z,28.62
2023-07-03T07:17:17.895Z,28.63
2023-07-03T07:18:18.076Z,28.65
2023-07-03T07:19:17.956Z,28.63
2023-07-03T07:20:18.027Z,28.65
2023-07-03T07:21:18.040Z,28.61
2023-07-03T07:22:18.103Z,28.62
2023-07-03T07:23:18.209Z,28.62
2023-07-03T07:24:18.232Z,28.63
2023-07-03T07:25:18.282Z,28.62
2023-07-03T07:26:18.612Z,28.56
2023-07-03T07:27:18.382Z,28.54
2023-07-03T07:28:18.448Z,28.52
2023-07-03T07:29:18.507Z,28.51
2023-07-03T07:30:18.654Z,28.45
2023-07-03T07:31:18.728Z,28.39
2023-07-03T07:32:18.662Z,28.37
2023-07-03T07:33:18.713Z,28.31
2023-07-03T07:34:18.753Z,28.34
2023-07-03T07:35:18.766Z,28.31
2023-07-03T07:36:18.745Z,28.24
2023-07-03T07:37:18.758Z,28.25
2023-07-03T07:38:18.749Z,28.20
2023-07-03T07:39:18.754Z,28.15
2023-07-03T07:40:18.767Z,28.15
2023-07-03T07:41:19.129Z,28.18
2023-07-03T07:42:18.720Z,28.14
2023-07-03T07:43:18.758Z,28.11
2023-07-03T07:44:18.752Z,28.12
2023-07-03T07:45:18.753Z,28.11
2023-07-03T07:46:18.876Z,28.10
2023-07-03T07:47:18.738Z,28.08
2023-07-03T07:48:18.712Z,28.08
2023-07-03T07:49:18.732Z,28.07
2023-07-03T07:50:18.700Z,28.07
2023-07-03T07:51:18.765Z,28.01
2023-07-03T07:52:18.730Z,28.01
2023-07-03T07:53:18.695Z,28.01
2023-07-03T07:54:18.705Z,28.00
2023-07-03T07:55:18.711Z,28.00
2023-07-03T07:56:18.723Z,27.96
2023-07-03T07:57:18.718Z,27.93
2023-07-03T07:58:18.742Z,28.00
2023-07-03T07:59:18.707Z,27.97
2023-07-03T08:00:18.703Z,27.97
2023-07-03T08:01:18.900Z,27.94
2023-07-03T08:02:18.911Z,27.91
2023-07-03T08:03:18.759Z,27.94
2023-07-03T08:04:18.847Z,27.96
2023-07-03T08:05:18.778Z,27.96
2023-07-03T08:06:18.721Z,27.94
2023-07-03T08:07:18.775Z,27.91
2023-07-03T08:08:18.750Z,27.91
2023-07-03T08:09:18.762Z,27.93
2023-07-03T08:10:18.760Z,27.94
2023-07-03T08:11:18.775Z,27.91
2023-07-03T08:12:18.937Z,27.99
2023-07-03T08:13:18.745Z,27.93
2023-07-03T08:14:18.783Z,27.94
2023-07-03T08:15:18.771Z,27.96
2023-07-03T08:16:18.830Z,27.93
2023-07-03T08:17:18.776Z,27.94
2023-07-03T08:18:18.893Z,27.93
2023-07-03T08:19:18.789Z,27.94
2023-07-03T08:20:18.753Z,27.94
2023-07-03T08:21:19.157Z,27.97
2023-07-03T08:22:18.793Z,27.96
2023-07-03T08:23:18.775Z,27.97
2023-07-03T08:24:18.794Z,27.97
2023-07-03T08:25:18.779Z,27.99
2023-07-03T08:26:18.757Z,27.97
2023-07-03T08:27:18.836Z,27.99
2023-07-03T08:28:18.821Z,27.96
2023-07-03T08:29:18.774Z,27.97
2023-07-03T08:30:18.781Z,28.03
2023-07-03T08:31:18.853Z,28.04
2023-07-03T08:32:18.806Z,28.05
2023-07-03T08:33:18.863Z,28.08
2023-07-03T08:34:18.936Z,28.11
2023-07-03T08:37:19.213Z,28.17
2023-07-03T08:38:18.752Z,28.18
2023-07-03T08:39:18.759Z,28.21
2023-07-03T08:40:18.746Z,28.22
2023-07-03T08:41:18.720Z,28.24
2023-07-03T08:42:19.160Z,28.27
2023-07-03T08:43:18.694Z,28.31
2023-07-03T08:44:18.735Z,28.32
2023-07-03T08:45:18.697Z,28.34
2023-07-03T08:46:19.186Z,28.34
2023-07-03T08:47:18.978Z,28.38
2023-07-03T08:48:18.685Z,28.48
2023-07-03T08:49:18.687Z,28.54
2023-07-03T08:50:27.964Z,28.54
2023-07-03T08:51:19.754Z,28.56
2023-07-03T08:52:18.659Z,28.56
2023-07-03T08:53:18.662Z,28.55
2023-07-03T08:54:18.637Z,28.56
2023-07-03T08:55:18.640Z,28.58
2023-07-03T08:56:18.629Z,28.56
2023-07-03T08:57:18.637Z,28.58
2023-07-03T08:58:18.615Z,28.56
2023-07-03T08:59:18.609Z,28.58
2023-07-03T09:00:18.631Z,28.58
2023-07-03T09:01:18.746Z,28.59
2023-07-03T09:02:18.761Z,28.58
2023-07-03T09:03:18.898Z,28.58
2023-07-03T09:04:19.006Z,28.61
2023-07-03T09:05:18.914Z,28.59
2023-07-03T09:06:19.065Z,28.61
2023-07-03T09:07:19.038Z,28.65
2023-07-03T09:08:19.102Z,28.65
2023-07-03T09:09:19.209Z,28.66
2023-07-03T09:10:19.322Z,28.65
2023-07-03T09:11:19.662Z,28.68
2023-07-03T09:12:19.651Z,28.66
2023-07-03T09:13:19.392Z,28.68
2023-07-03T09:14:19.441Z,28.66
2023-07-03T09:15:19.489Z,28.68
2023-07-03T09:16:19.553Z,28.66
2023-07-03T09:17:19.705Z,28.69
2023-07-03T09:18:19.655Z,28.68
2023-07-03T09:19:20.658Z,28.69
2023-07-03T09:20:19.769Z,28.63
2023-07-03T09:21:19.809Z,28.68
2023-07-03T09:22:19.856Z,28.68
2023-07-03T09:23:19.895Z,28.69
2023-07-03T09:24:19.902Z,28.66
2023-07-03T09:25:19.913Z,28.69
2023-07-03T09:26:19.900Z,28.73
2023-07-03T09:27:20.764Z,28.72
2023-07-03T09:28:19.916Z,28.75
2023-07-03T09:29:20.825Z,28.78
2023-07-03T09:30:20.066Z,28.78
2023-07-03T09:31:20.080Z,28.83
2023-07-03T09:32:20.145Z,28.83
2023-07-03T09:33:20.732Z,28.86
2023-07-03T09:34:20.151Z,28.80
2023-07-03T09:35:20.186Z,28.76
2023-07-03T09:36:20.231Z,28.75
2023-07-03T09:37:20.278Z,28.72
2023-07-03T09:38:20.507Z,28.73
2023-07-03T09:39:20.424Z,28.69
2023-07-03T09:40:21.356Z,28.65
2023-07-03T09:41:20.465Z,28.65
2023-07-03T09:42:20.542Z,28.65
2023-07-03T09:43:20.589Z,28.65
2023-07-03T09:44:20.943Z,28.61
2023-07-03T09:45:20.671Z,28.59
2023-07-03T09:46:20.746Z,28.56
2023-07-03T09:47:20.920Z,28.54
2023-07-03T09:48:21.365Z,28.58
2023-07-03T09:49:20.907Z,28.56
2023-07-03T09:50:20.962Z,28.55
2023-07-03T09:51:21.030Z,28.51
2023-07-03T09:52:21.743Z,28.54
2023-07-03T09:53:21.144Z,28.54
2023-07-03T09:54:21.274Z,28.51
2023-07-03T09:55:21.411Z,28.54
2023-07-03T09:56:21.332Z,28.55
2023-07-03T09:57:21.396Z,28.58
2023-07-03T09:58:21.422Z,28.65
2023-07-03T09:59:21.432Z,28.66
2023-07-03T10:00:21.524Z,28.72
2023-07-03T10:07:21.786Z,29.05
2023-07-03T10:08:23.472Z,29.10
2023-07-03T10:11:21.506Z,29.13
2023-07-03T10:12:21.547Z,29.20
2023-07-03T10:13:21.424Z,29.21
2023-07-03T10:14:21.421Z,29.21
2023-07-03T10:15:21.422Z,29.20
2023-07-03T10:16:21.436Z,29.14
2023-07-03T10:17:21.481Z,29.14
2023-07-03T10:18:21.471Z,29.10
2023-07-03T10:19:21.416Z,29.11
2023-07-03T10:20:23.121Z,29.14
2023-07-03T10:21:21.440Z,29.13
2023-07-03T10:22:21.386Z,29.10
2023-07-03T10:23:21.392Z,29.07
2023-07-03T10:24:21.438Z,29.06
2023-07-03T10:25:21.420Z,29.03
2023-07-03T10:26:22.765Z,29.03
2023-07-03T10:27:21.451Z,29.02
2023-07-03T10:28:21.457Z,28.99
2023-07-03T10:29:21.440Z,29.02
2023-07-03T10:30:21.435Z,29.00
2023-07-03T10:31:21.477Z,28.99
2023-07-03T10:32:21.470Z,28.96
2023-07-03T10:33:21.414Z,28.96
2023-07-03T10:34:21.394Z,28.96
2023-07-03T10:35:21.404Z,28.95
2023-07-03T10:36:21.397Z,28.92
2023-07-03T10:37:21.402Z,28.93
2023-07-03T10:38:21.391Z,28.90
2023-07-03T10:39:21.372Z,28.92
2023-07-03T10:40:21.367Z,28.89
2023-07-03T10:41:21.350Z,28.86
2023-07-03T10:42:21.528Z,28.90
2023-07-03T10:43:21.359Z,28.90
2023-07-03T10:44:21.324Z,28.88
2023-07-03T10:45:21.335Z,28.88
2023-07-03T10:46:23.012Z,28.88
2023-07-03T10:47:21.346Z,28.90
2023-07-03T10:48:21.362Z,28.88
2023-07-03T10:49:21.308Z,28.83
2023-07-03T10:50:21.294Z,28.88
2023-07-03T10:51:21.277Z,28.85
2023-07-03T10:52:22.278Z,28.86
2023-07-03T10:53:21.292Z,28.88
2023-07-03T10:54:21.376Z,28.89
2023-07-03T10:55:21.266Z,28.86
2023-07-03T10:56:21.250Z,28.90
2023-07-03T10:57:21.235Z,28.88
2023-07-03T10:58:21.332Z,28.89
2023-07-03T10:59:21.270Z,28.90
2023-07-03T11:00:21.247Z,28.88
2023-07-03T11:01:21.217Z,28.88
2023-07-03T11:02:21.259Z,28.90
2023-07-03T11:03:21.254Z,28.88
2023-07-03T11:04:24.610Z,28.88
2023-07-03T11:05:21.223Z,28.86
2023-07-03T11:06:21.210Z,28.89
2023-07-03T11:07:21.241Z,28.88
2023-07-03T11:08:21.219Z,28.86
2023-07-03T11:09:21.186Z,28.89
2023-07-03T11:10:22.066Z,28.86
2023-07-03T11:11:21.169Z,28.85
2023-07-03T11:12:21.186Z,28.83
2023-07-03T11:13:21.202Z,28.83
2023-07-03T11:14:21.303Z,28.83
2023-07-03T11:15:21.142Z,28.85
2023-07-03T11:16:21.876Z,28.85
2023-07-03T11:17:21.151Z,28.85
2023-07-03T11:20:21.179Z,28.82
2023-07-03T11:23:21.164Z,28.85
2023-07-03T11:24:21.104Z,28.82
2023-07-03T11:25:21.109Z,28.83
2023-07-03T11:28:23.973Z,28.83
2023-07-03T11:29:21.064Z,28.83
2023-07-03T11:30:21.060Z,28.83
2023-07-03T11:31:21.116Z,28.85
2023-07-03T11:32:21.041Z,28.86
2023-07-03T11:33:21.463Z,28.89
2023-07-03T11:36:21.661Z,28.88
2023-07-03T11:37:21.181Z,28.89
2023-07-03T11:40:21.537Z,28.96
2023-07-03T11:44:21.331Z,29.02
2023-07-03T11:45:20.980Z,29.05
2023-07-03T11:46:20.970Z,29.06
2023-07-03T11:47:20.984Z,29.06
2023-07-03T11:48:20.931Z,29.09
2023-07-03T11:49:20.937Z,29.07
2023-07-03T11:50:20.934Z,29.11
2023-07-03T11:51:20.916Z,29.16
2023-07-03T11:52:20.914Z,29.16
2023-07-03T11:53:20.898Z,29.16
2023-07-03T11:54:20.907Z,29.14
2023-07-03T11:55:20.910Z,29.19
2023-07-03T11:56:20.888Z,29.23
2023-07-03T11:57:20.908Z,29.19
2023-07-03T11:58:21.436Z,29.26
2023-07-03T11:59:20.865Z,29.26
2023-07-03T12:00:20.851Z,29.29
2023-07-03T12:01:20.897Z,29.31
2023-07-03T12:02:20.907Z,29.27
2023-07-03T12:03:20.871Z,29.36
2023-07-03T12:04:20.855Z,29.31
2023-07-03T12:05:20.820Z,29.34
2023-07-03T12:06:20.838Z,29.37
2023-07-03T12:07:20.852Z,29.36
2023-07-03T12:08:20.804Z,29.37
2023-07-03T12:09:20.798Z,29.40
2023-07-03T12:10:20.798Z,29.36
2023-07-03T12:11:20.785Z,29.37
2023-07-03T12:12:20.823Z,29.37
2023-07-03T12:13:20.807Z,29.38
2023-07-03T12:14:20.800Z,29.41
2023-07-03T12:15:20.773Z,29.41
2023-07-03T12:16:20.783Z,29.41
2023-07-03T12:17:20.777Z,29.40
2023-07-03T12:18:20.772Z,29.43
2023-07-03T12:19:20.742Z,29.41
2023-07-03T12:20:20.751Z,29.41
2023-07-03T12:21:20.714Z,29.41
2023-07-03T12:22:20.749Z,29.43
2023-07-03T12:23:20.709Z,29.43
2023-07-03T12:24:20.743Z,29.43
2023-07-03T12:25:20.735Z,29.43
2023-07-03T12:26:20.771Z,29.40
2023-07-03T12:27:20.681Z,29.40
2023-07-03T12:28:20.703Z,29.38
2023-07-03T12:29:23.283Z,29.38
2023-07-03T12:30:20.674Z,29.36
2023-07-03T12:31:20.700Z,29.37
2023-07-03T12:32:20.664Z,29.43
2023-07-03T12:33:20.675Z,29.41
2023-07-03T12:34:20.638Z,29.44
2023-07-03T12:35:20.641Z,29.47
2023-07-03T12:36:20.642Z,29.47
2023-07-03T12:37:20.625Z,29.47
2023-07-03T12:38:20.604Z,29.51
2023-07-03T12:39:20.603Z,29.54
2023-07-03T12:40:20.589Z,29.54
2023-07-03T12:41:20.595Z,29.61
2023-07-03T12:42:20.614Z,29.63
2023-07-03T12:43:20.583Z,29.64
2023-07-03T12:44:20.554Z,29.64
2023-07-03T12:45:20.623Z,29.67
2023-07-03T12:46:20.582Z,29.67
2023-07-03T12:47:20.552Z,29.68
2023-07-03T12:48:20.529Z,29.71
2023-07-03T12:49:20.527Z,29.72
2023-07-03T12:50:20.530Z,29.75
2023-07-03T12:51:20.527Z,29.74
2023-07-03T12:52:20.545Z,29.75
2023-07-03T12:53:20.518Z,29.77
2023-07-03T12:54:20.523Z,29.72
2023-07-03T12:55:20.497Z,29.72
2023-07-03T12:56:20.498Z,29.71
2023-07-03T12:57:20.476Z,29.72
2023-07-03T12:58:20.492Z,29.71
2023-07-03T12:59:20.486Z,29.67
2023-07-03T13:00:20.481Z,29.67
2023-07-03T13:01:20.561Z,29.65
2023-07-03T13:02:20.490Z,29.65
2023-07-03T13:03:20.489Z,29.64
2023-07-03T13:04:20.471Z,29.63
2023-07-03T13:05:22.237Z,29.64
2023-07-03T13:06:20.502Z,29.63
2023-07-03T13:07:20.416Z,29.67
2023-07-03T13:08:20.424Z,29.63
2023-07-03T13:09:20.460Z,29.64
2023-07-03T13:10:20.457Z,29.63
2023-07-03T13:11:20.415Z,29.64
2023-07-03T13:12:20.398Z,29.61
2023-07-03T13:13:20.388Z,29.60
2023-07-03T13:14:20.389Z,29.60
2023-07-03T13:15:20.363Z,29.58